Terminal Aerodrome Forecast
Issued by NWS Greer, SC

Home | Current Version | Previous Version | Text Only | Print | Product List | Glossary On
Versions: 1 2 3 4 5 6 7 8 9 10 11 12
000
FTUS42 KGSP 311121
TAFGSP
TAF
KGSP 311121Z 3112/0112 03006KT P6SM SCT120
     FM311400 01004KT P6SM SCT060 BKN100
     FM010100 33007KT P6SM VCSH BKN060 OVC100
     FM010500 33012KT P6SM -RA BKN050=

USA.gov is the U.S. government's official web portal to all federal, state and local government web resources and services.